Time;durP1;ratioP1;P1;durP2;ratioP2;P2;SDS_P1;SDS_P2;PMS_P1;PMS_P2;Temp;Humidity;BMP_temperature;BMP_pressure;BME280_temperature;BME280_humidity;BME280_pressure;Samples;Min_cycle;Max_cycle;Signal;HPM_P1;HPM_P2
2022/04/09 00:00:27;;;;;;;28.23;4.38;;;;;;;3.00;100.00;100405.94;4993642;28;20057;-44
2022/04/09 00:02:52;;;;;;;30.75;4.40;;;;;;;2.99;100.00;100401.66;4997018;28;20309;-43
2022/04/09 00:05:18;;;;;;;28.55;3.63;;;;;;;3.02;100.00;100408.47;4997243;28;20037;-45
2022/04/09 00:07:43;;;;;;;32.45;3.72;;;;;;;3.04;100.00;100423.22;4983274;28;20026;-44
2022/04/09 00:10:11;;;;;;;35.75;3.45;;;;;;;3.08;100.00;100413.25;4977938;28;20476;-43
2022/04/09 00:12:37;;;;;;;43.20;4.13;;;;;;;3.13;100.00;100429.56;4986682;28;20030;-42
2022/04/09 00:15:03;;;;;;;26.92;3.80;;;;;;;3.15;100.00;100427.63;4996621;28;20017;-43
2022/04/09 00:17:35;;;;;;;42.42;4.40;;;;;;;3.16;100.00;100440.69;4997781;28;20010;-43
2022/04/09 00:20:01;;;;;;;29.48;3.38;;;;;;;3.18;100.00;100437.94;4998014;28;20030;-46
2022/04/09 00:22:26;;;;;;;25.33;2.88;;;;;;;3.17;100.00;100452.09;4995030;28;20112;-44
2022/04/09 00:24:52;;;;;;;30.50;3.45;;;;;;;3.10;100.00;100446.47;4983176;28;20040;-42
2022/04/09 00:27:17;;;;;;;39.10;3.95;;;;;;;3.09;100.00;100444.81;5002156;28;20130;-44
2022/04/09 00:29:42;;;;;;;31.15;3.67;;;;;;;3.10;100.00;100451.75;4981381;28;20026;-44
2022/04/09 00:32:07;;;;;;;27.85;3.00;;;;;;;3.12;100.00;100454.25;4993082;28;20025;-47
2022/04/09 00:34:33;;;;;;;21.85;3.53;;;;;;;3.09;100.00;100458.00;5001217;28;20322;-42
2022/04/09 00:36:58;;;;;;;38.38;3.88;;;;;;;3.08;100.00;100466.84;4983365;28;20465;-45
2022/04/09 00:39:24;;;;;;;25.13;3.03;;;;;;;3.08;100.00;100472.13;4981360;28;20023;-42
2022/04/09 00:41:50;;;;;;;38.83;3.58;;;;;;;3.09;100.00;100470.31;4980302;28;20018;-43
2022/04/09 00:44:21;;;;;;;32.53;4.00;;;;;;;3.07;100.00;100482.81;4981086;28;20026;-44
2022/04/09 00:46:47;;;;;;;33.40;3.78;;;;;;;3.05;100.00;100477.66;4994894;28;20041;-44
2022/04/09 00:49:14;;;;;;;33.90;3.40;;;;;;;3.06;100.00;100487.25;4981372;28;20173;-42
2022/04/09 00:51:42;;;;;;;20.67;3.63;;;;;;;3.09;100.00;100488.78;4984652;28;20433;-43
2022/04/09 00:54:11;;;;;;;29.60;3.40;;;;;;;3.10;100.00;100498.41;5000178;28;20033;-43
2022/04/09 00:56:38;;;;;;;30.58;2.45;;;;;;;3.12;100.00;100496.47;4987661;28;20069;-43
2022/04/09 00:59:06;;;;;;;25.70;3.33;;;;;;;3.15;100.00;100504.16;4979819;28;20597;-44
2022/04/09 01:01:34;;;;;;;34.42;3.35;;;;;;;3.09;100.00;100502.84;4993774;28;20107;-46
2022/04/09 01:04:04;;;;;;;44.80;3.70;;;;;;;3.09;100.00;100502.00;4992485;28;20048;-43
2022/04/09 01:06:32;;;;;;;26.23;2.90;;;;;;;3.06;100.00;100510.16;4981275;28;20613;-44
2022/04/09 01:08:57;;;;;;;36.08;3.47;;;;;;;3.03;100.00;100518.31;4981161;28;20030;-43
2022/04/09 01:11:22;;;;;;;39.90;3.80;;;;;;;2.95;100.00;100514.50;4991441;28;20101;-43
2022/04/09 01:13:48;;;;;;;33.80;3.67;;;;;;;2.98;100.00;100527.41;4997143;28;20038;-42
2022/04/09 01:16:13;;;;;;;29.65;3.08;;;;;;;2.94;100.00;100517.25;4994300;28;20469;-42
2022/04/09 01:18:41;;;;;;;29.95;4.00;;;;;;;2.94;100.00;100530.44;4996476;28;20026;-43
2022/04/09 01:21:06;;;;;;;35.75;3.75;;;;;;;2.93;100.00;100531.38;4998583;28;20083;-44
2022/04/09 01:23:32;;;;;;;31.13;3.88;;;;;;;2.93;100.00;100541.94;4992022;28;20026;-42
2022/04/09 01:25:59;;;;;;;36.55;3.75;;;;;;;2.93;100.00;100541.94;4999512;28;20026;-42
2022/04/09 01:28:25;;;;;;;38.03;3.42;;;;;;;2.88;100.00;100544.91;4980930;28;20117;-41
2022/04/09 01:30:52;;;;;;;25.23;3.15;;;;;;;2.87;100.00;100551.16;4979763;28;20050;-41
2022/04/09 01:33:18;;;;;;;30.52;2.88;;;;;;;2.85;100.00;100550.44;4991415;28;20038;-44
2022/04/09 01:35:44;;;;;;;29.80;3.30;;;;;;;2.83;100.00;100560.25;4993838;28;20034;-41
2022/04/09 01:38:10;;;;;;;37.53;3.50;;;;;;;2.82;100.00;100558.59;4989419;28;20730;-42
2022/04/09 01:40:35;;;;;;;25.50;2.63;;;;;;;2.84;100.00;100566.41;4998941;28;20113;-42
2022/04/09 01:43:00;;;;;;;31.45;3.42;;;;;;;2.87;100.00;100571.41;4996761;28;20124;-41
2022/04/09 01:45:27;;;;;;;43.40;3.88;;;;;;;2.87;100.00;100574.03;4998605;28;20025;-43
2022/04/09 01:47:53;;;;;;;37.30;3.90;;;;;;;2.86;100.00;100573.22;4998501;28;20081;-42
2022/04/09 01:50:19;;;;;;;39.63;3.38;;;;;;;2.87;100.00;100584.59;4998255;28;20480;-43
2022/04/09 01:52:44;;;;;;;27.63;3.17;;;;;;;2.86;100.00;100589.03;4991530;28;20026;-44
2022/04/09 01:55:09;;;;;;;34.28;2.85;;;;;;;2.88;100.00;100591.56;4979929;28;20121;-43
2022/04/09 01:57:35;;;;;;;38.70;3.65;;;;;;;2.93;100.00;100592.88;4997638;28;20075;-41
2022/04/09 02:00:00;;;;;;;37.20;3.10;;;;;;;2.95;100.00;100598.91;4993566;28;20058;-42
2022/04/09 02:02:26;;;;;;;28.70;3.05;;;;;;;2.97;100.00;100606.66;4981218;28;20088;-42
2022/04/09 02:04:51;;;;;;;30.25;3.38;;;;;;;2.96;100.00;100605.84;4999044;28;20088;-43
2022/04/09 02:07:17;;;;;;;35.75;4.03;;;;;;;3.00;100.00;100606.44;5013581;28;20057;-42
2022/04/09 02:09:42;;;;;;;32.95;3.22;;;;;;;3.01;100.00;100612.56;4999140;28;20030;-41
2022/04/09 02:12:08;;;;;;;29.40;3.35;;;;;;;3.03;100.00;100614.13;4996055;28;20098;-41
2022/04/09 02:14:33;;;;;;;33.63;3.08;;;;;;;3.01;100.00;100618.69;4979818;28;20188;-41
2022/04/09 02:16:58;;;;;;;32.75;3.00;;;;;;;3.01;100.00;100617.84;4978118;28;20023;-42
2022/04/09 02:19:23;;;;;;;28.83;3.08;;;;;;;3.07;100.00;100627.91;4978899;28;20241;-42
2022/04/09 02:21:49;;;;;;;30.58;3.90;;;;;;;3.07;100.00;100641.97;4978827;28;20334;-43
2022/04/09 02:24:14;;;;;;;29.88;4.30;;;;;;;3.10;100.00;100632.97;4979535;28;20023;-44
2022/04/09 02:26:39;;;;;;;34.95;3.75;;;;;;;3.12;100.00;100638.94;4993285;28;20084;-45
2022/04/09 02:29:05;;;;;;;39.97;3.75;;;;;;;3.11;100.00;100650.47;4985728;28;20034;-43
2022/04/09 02:31:30;;;;;;;32.00;3.00;;;;;;;3.17;100.00;100657.91;4986054;28;20029;-43
2022/04/09 02:33:55;;;;;;;36.95;3.30;;;;;;;3.20;100.00;100664.78;4978447;28;20034;-44
2022/04/09 02:36:22;;;;;;;34.78;3.15;;;;;;;3.20;100.00;100660.31;4979635;28;20026;-43
2022/04/09 02:38:48;;;;;;;28.40;2.92;;;;;;;3.23;100.00;100667.19;4981513;28;20027;-45
2022/04/09 02:41:13;;;;;;;39.70;3.20;;;;;;;3.17;100.00;100663.19;4989304;28;20076;-44
2022/04/09 02:43:43;;;;;;;23.98;3.13;;;;;;;3.14;100.00;100666.91;4998272;28;20502;-42
2022/04/09 02:46:08;;;;;;;21.17;2.72;;;;;;;3.18;100.00;100667.53;4982401;28;20256;-44
2022/04/09 02:48:33;;;;;;;30.17;2.72;;;;;;;3.21;100.00;100675.22;4977369;28;20560;-42
2022/04/09 02:50:58;;;;;;;19.85;2.38;;;;;;;3.17;100.00;100679.03;4977992;28;20040;-42
2022/04/09 02:53:24;;;;;;;18.40;2.05;;;;;;;3.09;100.00;100677.00;4977332;28;20034;-43
2022/04/09 02:55:49;;;;;;;21.02;2.13;;;;;;;3.06;100.00;100687.78;4989001;28;20285;-42
2022/04/09 02:58:15;;;;;;;24.63;2.33;;;;;;;3.02;100.00;100691.59;4998706;28;20061;-45
2022/04/09 03:00:40;;;;;;;18.70;2.45;;;;;;;2.99;100.00;100679.47;4996982;28;20125;-44
2022/04/09 03:03:06;;;;;;;16.45;1.60;;;;;;;3.01;100.00;100686.44;4983547;28;20465;-45
2022/04/09 03:05:31;;;;;;;18.90;2.35;;;;;;;2.98;100.00;100690.13;4983973;28;20445;-44
2022/04/09 03:07:57;;;;;;;22.92;2.00;;;;;;;2.91;100.00;100696.84;4997223;28;20637;-46
2022/04/09 03:10:23;;;;;;;15.40;1.95;;;;;;;2.90;100.00;100701.28;4997947;28;20657;-45
2022/04/09 03:12:48;;;;;;;15.40;2.05;;;;;;;2.91;100.00;100708.22;4982662;28;20045;-43
2022/04/09 03:15:14;;;;;;;24.05;2.83;;;;;;;2.89;100.00;100714.59;4995100;28;20433;-42
2022/04/09 03:17:41;;;;;;;19.88;2.28;;;;;;;2.84;100.00;100724.63;4997307;28;20540;-42
2022/04/09 03:20:07;;;;;;;19.25;2.65;;;;;;;2.82;100.00;100714.19;4977826;28;20497;-44
2022/04/09 03:22:33;;;;;;;22.73;2.58;;;;;;;2.80;100.00;100716.09;4978395;28;20030;-41
2022/04/09 03:24:59;;;;;;;25.52;2.30;;;;;;;2.74;100.00;100727.09;4978869;28;20022;-42
2022/04/09 03:27:27;;;;;;;23.65;2.97;;;;;;;2.76;100.00;100720.75;4985083;28;20026;-41
2022/04/09 03:29:53;;;;;;;26.75;2.20;;;;;;;2.82;100.00;100721.25;4997049;28;20037;-41
2022/04/09 03:32:20;;;;;;;35.20;2.65;;;;;;;2.79;100.00;100723.16;4985058;28;20030;-43
2022/04/09 03:34:45;;;;;;;20.17;3.28;;;;;;;2.85;100.00;100729.81;4981284;28;20030;-44
2022/04/09 03:37:11;;;;;;;26.27;3.05;;;;;;;2.83;100.00;100730.84;4988126;28;20041;-42
2022/04/09 03:39:37;;;;;;;24.92;2.90;;;;;;;2.78;100.00;100731.19;4990131;28;20576;-43
2022/04/09 03:42:04;;;;;;;16.02;2.00;;;;;;;2.73;100.00;100731.56;4996527;28;20079;-41
2022/04/09 03:44:29;;;;;;;17.60;2.42;;;;;;;2.66;100.00;100740.84;4980846;28;20521;-43
2022/04/09 03:46:58;;;;;;;27.02;2.40;;;;;;;2.59;100.00;100744.88;4988005;28;20069;-44
2022/04/09 03:49:24;;;;;;;28.70;2.63;;;;;;;2.48;100.00;100739.53;4976843;28;20441;-44
2022/04/09 03:51:49;;;;;;;24.35;3.05;;;;;;;2.42;100.00;100733.78;4977597;28;20034;-45
2022/04/09 03:54:15;;;;;;;21.83;3.05;;;;;;;2.38;100.00;100739.41;4995766;28;20092;-46
2022/04/09 03:56:41;;;;;;;26.50;2.80;;;;;;;2.33;100.00;100742.34;4996229;28;20397;-45
2022/04/09 03:59:06;;;;;;;26.15;2.80;;;;;;;2.30;100.00;100761.00;4979938;28;20026;-42
2022/04/09 04:01:31;;;;;;;24.20;2.92;;;;;;;2.26;100.00;100758.69;4976910;28;20042;-41
2022/04/09 04:03:57;;;;;;;23.17;3.42;;;;;;;2.21;100.00;100765.16;4981619;28;20234;-41
2022/04/09 04:06:22;;;;;;;33.78;3.35;;;;;;;2.22;100.00;100772.13;4981017;28;20030;-41
2022/04/09 04:08:48;;;;;;;23.08;2.58;;;;;;;2.20;100.00;100766.09;4988263;28;20026;-42
2022/04/09 04:11:13;;;;;;;22.65;3.08;;;;;;;2.18;100.00;100767.16;5000048;28;20040;-42
2022/04/09 04:13:39;;;;;;;29.00;3.35;;;;;;;2.16;100.00;100772.53;5000889;28;20026;-42
2022/04/09 04:16:05;;;;;;;26.92;3.25;;;;;;;2.16;100.00;100779.63;4995001;28;20157;-47
2022/04/09 04:18:30;;;;;;;36.80;3.92;;;;;;;2.14;100.00;100781.50;4988271;28;20018;-45
2022/04/09 04:20:56;;;;;;;36.22;3.53;;;;;;;2.12;100.00;100786.91;4978925;28;20041;-42
2022/04/09 04:23:23;;;;;;;36.03;3.97;;;;;;;2.09;100.00;100800.28;4993473;28;20467;-41
2022/04/09 04:25:48;;;;;;;34.80;3.00;;;;;;;2.05;100.00;100796.16;4999861;28;20152;-42
2022/04/09 04:28:14;;;;;;;29.70;3.78;;;;;;;2.03;100.00;100793.63;5000853;28;21569;-42
2022/04/09 04:30:39;;;;;;;30.95;3.33;;;;;;;2.00;100.00;100801.75;4996029;28;20030;-44
2022/04/09 04:33:05;;;;;;;35.35;3.50;;;;;;;2.02;100.00;100807.75;4998599;28;20030;-43
2022/04/09 04:35:30;;;;;;;17.83;3.13;;;;;;;2.02;100.00;100809.53;4989338;28;20037;-41
2022/04/09 04:37:55;;;;;;;29.95;4.18;;;;;;;2.07;100.00;100809.22;4978638;28;20037;-45
2022/04/09 04:40:21;;;;;;;36.10;3.72;;;;;;;2.09;100.00;100812.59;4985753;28;20030;-43
2022/04/09 04:42:48;;;;;;;30.20;3.35;;;;;;;2.09;100.00;100823.13;5000016;28;20018;-41
2022/04/09 04:45:13;;;;;;;23.05;2.92;;;;;;;2.04;100.00;100815.56;4980677;28;20114;-42
2022/04/09 04:47:46;;;;;;;26.17;3.83;;;;;;;2.08;100.00;100830.19;4979796;28;20050;-44
2022/04/09 04:50:13;;;;;;;39.53;3.55;;;;;;;2.11;100.00;100824.72;4987159;28;20074;-41
2022/04/09 04:52:38;;;;;;;20.08;2.55;;;;;;;2.14;100.00;100823.63;4989067;28;20033;-42
2022/04/09 04:55:03;;;;;;;32.35;3.20;;;;;;;2.17;100.00;100836.59;4980830;28;20026;-43
2022/04/09 04:57:30;;;;;;;30.60;3.95;;;;;;;2.21;100.00;100843.38;4980742;28;20045;-43
2022/04/09 04:59:58;;;;;;;26.83;3.22;;;;;;;2.22;100.00;100843.25;4980484;28;20058;-44
2022/04/09 05:02:23;;;;;;;26.23;3.05;;;;;;;2.20;100.00;100837.22;4980026;28;20034;-42
2022/04/09 05:04:49;;;;;;;33.10;3.60;;;;;;;2.22;100.00;100848.53;4980731;28;20030;-43
2022/04/09 05:07:14;;;;;;;34.30;4.00;;;;;;;2.21;100.00;100853.91;4997395;28;20752;-44
2022/04/09 05:09:39;;;;;;;17.80;3.00;;;;;;;2.18;100.00;100859.38;5000194;28;20037;-43
2022/04/09 05:12:05;;;;;;;21.80;3.35;;;;;;;2.17;100.00;100860.31;4992056;28;20030;-46
2022/04/09 05:14:30;;;;;;;26.73;3.70;;;;;;;2.20;100.00;100870.66;5000439;28;20365;-43
2022/04/09 05:16:57;;;;;;;30.33;3.50;;;;;;;2.20;100.00;100876.75;4999611;28;20037;-45
2022/04/09 05:19:22;;;;;;;24.92;3.70;;;;;;;2.24;100.00;100880.00;4988654;28;20026;-42
2022/04/09 05:21:48;;;;;;;31.80;3.83;;;;;;;2.32;100.00;100882.97;4990005;28;20057;-44
2022/04/09 05:24:13;;;;;;;23.38;3.53;;;;;;;2.37;100.00;100886.13;4999884;28;20075;-42
2022/04/09 05:26:38;;;;;;;26.30;3.20;;;;;;;2.43;100.00;100892.78;4981480;28;20255;-41
2022/04/09 05:29:04;;;;;;;34.45;5.22;;;;;;;2.49;100.00;100892.34;4981197;28;20031;-44
2022/04/09 05:31:29;;;;;;;27.45;3.08;;;;;;;2.51;100.00;100897.50;4979749;28;20069;-42
2022/04/09 05:33:55;;;;;;;26.73;3.78;;;;;;;2.55;100.00;100905.09;4981071;28;20116;-74
2022/04/09 05:36:21;;;;;;;20.55;3.10;;;;;;;2.56;100.00;100896.25;4980635;28;20276;-45
2022/04/09 05:38:46;;;;;;;35.33;3.40;;;;;;;2.55;100.00;100905.09;4986559;28;20235;-44
2022/04/09 05:41:12;;;;;;;32.05;3.95;;;;;;;2.56;100.00;100912.06;4999241;28;20029;-43
2022/04/09 05:43:37;;;;;;;31.08;3.50;;;;;;;2.53;100.00;100919.31;4999428;28;20393;-45
2022/04/09 05:46:02;;;;;;;25.67;3.70;;;;;;;2.53;100.00;100916.69;4997677;28;20052;-44
2022/04/09 05:48:28;;;;;;;30.02;3.80;;;;;;;2.52;100.00;100920.28;4998856;28;20033;-45
2022/04/09 05:50:53;;;;;;;27.27;3.85;;;;;;;2.54;100.00;100924.47;4999679;28;20034;-43
2022/04/09 05:53:18;;;;;;;30.25;3.47;;;;;;;2.53;100.00;100922.81;5000142;28;20334;-43
2022/04/09 05:55:44;;;;;;;33.10;3.80;;;;;;;2.61;100.00;100936.31;4993584;28;20697;-44
2022/04/09 05:58:09;;;;;;;19.90;3.63;;;;;;;2.53;100.00;100933.38;4984501;28;20029;-47
2022/04/09 06:00:34;;;;;;;29.63;3.38;;;;;;;2.60;100.00;100952.25;4991045;28;20123;-44
2022/04/09 06:03:01;;;;;;;21.60;3.50;;;;;;;2.63;100.00;100945.88;4998273;28;20037;-42
2022/04/09 06:05:27;;;;;;;19.95;3.53;;;;;;;2.68;100.00;100944.63;4980895;28;20030;-42
2022/04/09 06:07:53;;;;;;;31.20;3.70;;;;;;;2.75;100.00;100956.44;4979616;28;20986;-41
2022/04/09 06:10:19;;;;;;;24.75;3.30;;;;;;;2.84;100.00;100956.75;4978486;28;20037;-44
2022/04/09 06:12:45;;;;;;;31.23;4.28;;;;;;;2.93;100.00;100970.09;4979113;28;20033;-45
2022/04/09 06:15:10;;;;;;;23.75;3.38;;;;;;;3.05;100.00;100978.09;4979171;28;20030;-43
2022/04/09 06:17:37;;;;;;;23.02;3.65;;;;;;;3.14;100.00;100973.03;4976181;28;20093;-44
2022/04/09 06:20:04;;;;;;;31.17;3.90;;;;;;;3.28;100.00;100985.22;4985636;28;20238;-46
2022/04/09 06:22:30;;;;;;;28.48;4.03;;;;;;;3.39;100.00;100991.53;4983835;28;20477;-43
2022/04/09 06:24:55;;;;;;;33.92;4.50;;;;;;;3.44;100.00;100998.16;4977708;28;20101;-42
2022/04/09 06:27:20;;;;;;;31.45;4.20;;;;;;;3.50;100.00;101002.16;4997514;28;20384;-43
2022/04/09 06:29:45;;;;;;;32.17;3.97;;;;;;;3.57;100.00;100997.28;4990580;28;20027;-44
2022/04/09 06:32:11;;;;;;;28.60;4.78;;;;;;;3.62;100.00;101006.53;4989672;28;20036;-44
2022/04/09 06:34:36;;;;;;;37.65;4.40;;;;;;;3.65;100.00;101013.38;4997273;28;20040;-44
2022/04/09 06:37:01;;;;;;;36.30;4.40;;;;;;;3.74;100.00;101018.00;4984013;28;20446;-42
2022/04/09 06:39:27;;;;;;;32.67;3.50;;;;;;;3.79;100.00;101028.25;4979021;28;20014;-44
2022/04/09 06:41:52;;;;;;;34.20;4.10;;;;;;;3.81;100.00;101023.69;4991385;28;20029;-45
2022/04/09 06:44:18;;;;;;;28.80;3.75;;;;;;;3.83;100.00;101038.44;4979417;28;20042;-41
2022/04/09 06:46:45;;;;;;;37.08;4.38;;;;;;;3.80;100.00;101030.78;4996515;28;20095;-43
2022/04/09 06:49:12;;;;;;;29.08;3.70;;;;;;;3.78;100.00;101034.47;4997426;28;20034;-40
2022/04/09 06:51:38;;;;;;;34.60;3.60;;;;;;;3.78;100.00;101045.88;4987861;28;20544;-42
2022/04/09 06:54:03;;;;;;;34.80;4.05;;;;;;;3.78;100.00;101067.00;4981207;28;20108;-41
2022/04/09 06:56:29;;;;;;;38.75;4.53;;;;;;;3.75;100.00;101080.44;4986211;28;20038;-41
2022/04/09 06:58:54;;;;;;;41.28;5.50;;;;;;;3.71;100.00;101086.91;4998472;28;20441;-41
2022/04/09 07:01:19;;;;;;;29.17;4.15;;;;;;;3.53;100.00;101076.72;4987011;28;20571;-41
2022/04/09 07:03:44;;;;;;;21.75;3.92;;;;;;;3.47;100.00;101071.03;4992085;28;20035;-42
2022/04/09 07:06:10;;;;;;;29.98;4.50;;;;;;;3.38;100.00;101061.09;4994127;28;20547;-44
2022/04/09 07:08:35;;;;;;;27.52;4.53;;;;;;;3.35;100.00;101057.75;4993803;28;20077;-43
2022/04/09 07:11:01;;;;;;;21.65;4.88;;;;;;;3.30;100.00;101062.50;4996736;28;20262;-43
2022/04/09 07:13:28;;;;;;;25.02;4.72;;;;;;;3.38;100.00;101074.31;4997306;28;20034;-43
2022/04/09 07:15:54;;;;;;;24.25;4.93;;;;;;;3.41;100.00;101079.38;4998438;28;20806;-43
2022/04/09 07:18:19;;;;;;;27.15;5.47;;;;;;;3.47;100.00;101071.88;4997036;28;20030;-43
2022/04/09 07:20:44;;;;;;;28.92;4.95;;;;;;;3.54;100.00;101074.91;4996991;28;20345;-44
2022/04/09 07:23:10;;;;;;;33.20;6.28;;;;;;;3.59;100.00;101083.34;4993127;28;20030;-43
2022/04/09 07:25:36;;;;;;;32.67;5.35;;;;;;;3.62;100.00;101071.72;4983547;28;20122;-41
2022/04/09 07:28:02;;;;;;;30.10;5.45;;;;;;;3.66;100.00;101079.31;4990656;28;20466;-40
2022/04/09 07:30:27;;;;;;;28.85;5.18;;;;;;;3.72;100.00;101076.22;4995919;28;20044;-41
2022/04/09 07:32:58;;;;;;;44.80;5.68;;;;;;;3.85;100.00;101078.84;4991682;28;20034;-43
2022/04/09 07:35:23;;;;;;;29.35;5.40;;;;;;;4.05;100.00;101089.72;4996328;28;20566;-41
2022/04/09 07:37:50;;;;;;;43.25;4.65;;;;;;;4.23;100.00;101085.72;4995041;28;20014;-46
2022/04/09 07:40:17;;;;;;;27.83;5.45;;;;;;;4.37;100.00;101090.00;4995648;28;20083;-46
2022/04/09 07:42:44;;;;;;;25.13;4.43;;;;;;;4.47;100.00;101090.16;4996841;28;20105;-42
2022/04/09 07:45:11;;;;;;;22.33;4.40;;;;;;;4.59;100.00;101093.66;4996051;28;20021;-46
2022/04/09 07:47:36;;;;;;;21.40;4.03;;;;;;;4.66;100.00;101097.53;4996100;28;20033;-42
2022/04/09 07:50:07;;;;;;;30.15;4.07;;;;;;;4.70;100.00;101093.72;4990196;28;20461;-41
2022/04/09 07:52:33;;;;;;;20.60;3.50;;;;;;;4.81;100.00;101103.47;4991400;28;20124;-46
2022/04/09 07:54:58;;;;;;;28.15;4.22;;;;;;;4.90;100.00;101108.03;5011110;28;20057;-42
2022/04/09 07:57:27;;;;;;;22.95;4.05;;;;;;;5.04;100.00;101109.63;4995861;28;20599;-44
2022/04/09 07:59:55;;;;;;;30.88;4.03;;;;;;;5.26;100.00;101105.31;4997323;28;20456;-42
2022/04/09 08:02:21;;;;;;;31.75;3.95;;;;;;;5.50;100.00;101099.88;4996910;28;20025;-42
2022/04/09 08:04:46;;;;;;;33.15;5.22;;;;;;;5.69;100.00;101099.28;5002166;28;20369;-40
2022/04/09 08:07:11;;;;;;;27.27;4.18;;;;;;;5.90;100.00;101107.28;4978361;28;20034;-41
2022/04/09 08:09:37;;;;;;;34.35;4.88;;;;;;;6.03;100.00;101123.09;4977992;28;20028;-43
2022/04/09 08:12:03;;;;;;;33.65;5.13;;;;;;;6.11;100.00;101116.19;4981407;28;20050;-43
2022/04/09 08:14:30;;;;;;;25.77;4.05;;;;;;;6.25;100.00;101123.00;4997271;28;20461;-46
2022/04/09 08:16:55;;;;;;;32.78;4.30;;;;;;;6.41;100.00;101119.91;4996235;28;20030;-44
2022/04/09 08:19:22;;;;;;;34.75;4.57;;;;;;;6.52;100.00;101111.91;4996881;28;20180;-42
2022/04/09 08:21:47;;;;;;;28.30;4.65;;;;;;;6.70;100.00;101122.81;4996052;28;20365;-41
2022/04/09 08:24:12;;;;;;;24.95;4.15;;;;;;;6.81;100.00;101121.06;4978821;28;20045;-42
2022/04/09 08:26:37;;;;;;;24.70;4.72;;;;;;;6.83;98.33;101127.91;4995636;28;20488;-44
2022/04/09 08:29:04;;;;;;;20.55;3.35;;;;;;;7.04;100.00;101140.34;4981183;28;20030;-42
2022/04/09 08:31:29;;;;;;;18.67;3.70;;;;;;;7.22;96.14;101132.63;4978441;28;20029;-45
2022/04/09 08:33:55;;;;;;;16.45;2.92;;;;;;;7.20;97.04;101156.66;4997160;28;20055;-47
2022/04/09 08:36:21;;;;;;;14.15;2.70;;;;;;;7.00;96.32;101150.38;4996247;28;20516;-47
2022/04/09 08:38:46;;;;;;;11.73;1.95;;;;;;;6.94;98.35;101147.41;4985759;28;20037;-47
2022/04/09 08:41:15;;;;;;;13.65;2.70;;;;;;;7.15;98.75;101152.72;4989546;28;20520;-44
2022/04/09 08:43:40;;;;;;;18.08;2.97;;;;;;;7.05;96.89;101153.47;4977291;28;20077;-47
2022/04/09 08:46:06;;;;;;;11.82;2.65;;;;;;;6.67;93.22;101173.50;4976922;28;20507;-42
2022/04/09 08:48:32;;;;;;;16.77;3.00;;;;;;;5.89;99.50;101180.69;4986502;28;20057;-41
2022/04/09 08:50:59;;;;;;;14.55;2.38;;;;;;;5.45;100.00;101179.72;4999600;28;20097;-43
2022/04/09 08:53:24;;;;;;;9.23;2.28;;;;;;;5.22;100.00;101182.31;4999837;28;20021;-41
2022/04/09 08:55:51;;;;;;;7.35;2.08;;;;;;;5.11;100.00;101179.69;4998992;28;20282;-43
2022/04/09 08:58:16;;;;;;;11.77;2.13;;;;;;;5.09;100.00;101178.97;5000305;28;20028;-42
2022/04/09 09:00:45;;;;;;;10.32;1.92;;;;;;;5.06;100.00;101173.91;4999279;28;20416;-43
2022/04/09 09:03:11;;;;;;;12.05;2.17;;;;;;;5.04;100.00;101181.94;4985764;28;20034;-42
2022/04/09 09:05:45;;;;;;;5.60;1.30;;;;;;;5.13;100.00;101188.34;4995667;28;20026;-41
2022/04/09 09:08:11;;;;;;;10.05;1.83;;;;;;;5.40;100.00;101193.31;4980660;28;20768;-43
2022/04/09 09:10:38;;;;;;;8.98;1.50;;;;;;;5.77;100.00;101211.66;4984385;28;20096;-42
2022/04/09 09:13:05;;;;;;;7.95;1.77;;;;;;;5.94;98.05;101217.41;4991553;28;20453;-42
2022/04/09 09:15:43;;;;;;;7.40;1.55;;;;;;;5.83;100.00;101234.16;4993025;28;20350;-44
2022/04/09 09:18:18;;;;;;;13.73;6.25;;;;;;;5.40;94.62;101235.69;4979302;28;20524;-43
2022/04/09 09:20:59;;;;;;;3.70;1.17;;;;;;;5.11;98.15;101235.28;4979778;28;20205;-42
2022/04/09 09:23:26;;;;;;;10.07;1.30;;;;;;;4.91;100.00;101236.78;4980496;28;20093;-45
2022/04/09 09:25:54;;;;;;;12.52;1.83;;;;;;;4.77;100.00;101235.16;4987609;28;20210;-43
2022/04/09 09:28:27;;;;;;;7.20;1.50;;;;;;;4.62;100.00;101233.66;4997893;28;20061;-45
2022/04/09 09:30:54;;;;;;;6.35;1.50;;;;;;;4.51;100.00;101228.28;4999352;28;20493;-43
2022/04/09 09:33:20;;;;;;;7.95;1.52;;;;;;;4.51;100.00;101223.84;4996236;28;20504;-43
2022/04/09 09:35:54;;;;;;;5.45;1.90;;;;;;;4.73;100.00;101228.38;4997125;28;20143;-44
2022/04/09 09:38:31;;;;;;;9.75;1.35;;;;;;;5.15;100.00;101220.84;4998565;28;20029;-45
2022/04/09 09:40:57;;;;;;;9.23;2.15;;;;;;;5.56;99.44;101222.09;4979539;28;20830;-43
2022/04/09 09:43:25;;;;;;;10.57;1.60;;;;;;;5.97;99.38;101225.16;4983070;28;20109;-46
2022/04/09 09:45:53;;;;;;;6.63;1.80;;;;;;;6.30;98.20;101223.44;4986843;28;20026;-42
2022/04/09 09:48:29;;;;;;;6.97;2.00;;;;;;;6.54;98.95;101224.06;4988388;28;20034;-43
2022/04/09 09:50:57;;;;;;;8.93;2.10;;;;;;;6.91;99.08;101222.88;4984610;28;20041;-43
2022/04/09 09:53:31;;;;;;;10.07;2.50;;;;;;;7.19;95.61;101225.84;4998794;28;20022;-42
2022/04/09 09:55:57;;;;;;;23.83;3.05;;;;;;;7.44;95.17;101224.59;5012701;28;20477;-42
2022/04/09 09:58:23;;;;;;;21.85;3.05;;;;;;;7.79;96.23;101226.88;4999616;28;20072;-44
2022/04/09 10:00:49;;;;;;;16.92;2.97;;;;;;;8.05;89.09;101213.13;4996712;28;20053;-43
2022/04/09 10:03:16;;;;;;;15.32;2.95;;;;;;;8.29;91.37;101222.56;4995419;28;20072;-41
2022/04/09 10:05:41;;;;;;;17.40;3.25;;;;;;;8.43;89.93;101216.84;4995571;28;20030;-42
2022/04/09 10:08:08;;;;;;;21.15;3.05;;;;;;;8.75;87.05;101221.94;4998166;28;20103;-43
2022/04/09 10:10:38;;;;;;;18.42;3.03;;;;;;;8.71;80.44;101225.84;4997395;28;20030;-41
2022/04/09 10:13:04;;;;;;;15.05;3.00;;;;;;;8.63;79.54;101215.06;4994667;28;20207;-42
2022/04/09 10:15:31;;;;;;;17.65;3.00;;;;;;;8.41;82.29;101210.81;4997107;28;20083;-41
2022/04/09 10:17:58;;;;;;;19.63;3.42;;;;;;;8.20;85.19;101225.06;4986878;28;20142;-42
2022/04/09 10:20:25;;;;;;;17.15;3.30;;;;;;;8.14;85.08;101214.94;4997506;28;20026;-43
2022/04/09 10:22:55;;;;;;;17.83;2.60;;;;;;;7.98;81.81;101223.44;4989323;28;20360;-45
2022/04/09 10:25:23;;;;;;;13.93;3.13;;;;;;;7.99;81.21;101219.81;4995018;28;20038;-41
2022/04/09 10:27:52;;;;;;;18.80;3.00;;;;;;;8.29;77.67;101233.19;4997324;28;20089;-45
2022/04/09 10:30:22;;;;;;;23.42;2.72;;;;;;;8.61;75.98;101219.69;4997480;28;20520;-44
2022/04/09 10:32:51;;;;;;;13.13;2.22;;;;;;;9.02;73.96;101212.38;4997053;28;20026;-43
2022/04/09 10:35:44;;;;;;;14.85;2.10;;;;;;;9.25;68.77;101228.91;4994165;28;20034;-45
2022/04/09 10:38:16;;;;;;;17.40;2.20;;;;;;;8.86;59.67;101236.06;4996707;28;20385;-42
2022/04/09 10:40:50;;;;;;;12.00;1.85;;;;;;;9.07;65.63;101226.13;4997688;28;20042;-45
2022/04/09 10:43:24;;;;;;;9.10;1.70;;;;;;;9.32;64.17;101234.53;4997886;28;20040;-42
2022/04/09 10:46:02;;;;;;;18.70;2.10;;;;;;;9.72;65.28;101241.41;4997378;28;20472;-42
2022/04/09 10:48:31;;;;;;;5.70;1.55;;;;;;;9.81;60.93;101235.22;4994413;28;20453;-42
2022/04/09 10:51:05;;;;;;;10.80;1.92;;;;;;;9.97;59.97;101258.59;4997570;28;20034;-42
2022/04/09 10:53:32;;;;;;;13.45;1.90;;;;;;;9.70;53.67;101252.22;4982463;28;20106;-42
2022/04/09 10:56:17;;;;;;;10.98;2.10;;;;;;;9.67;57.17;101239.19;4981470;28;20080;-42
2022/04/09 10:59:12;;;;;;;9.93;2.13;;;;;;;9.48;55.31;101237.41;4997824;28;20433;-40
2022/04/09 11:01:47;;;;;;;17.75;2.15;;;;;;;9.10;58.91;101241.84;4996351;28;20494;-41
2022/04/09 11:04:37;;;;;;;14.43;2.42;;;;;;;9.00;59.20;101243.66;4997023;28;20512;-43
2022/04/09 11:07:21;;;;;;;11.00;1.60;;;;;;;9.27;59.58;101248.25;4998340;28;20076;-42
2022/04/09 11:09:58;;;;;;;14.00;2.47;;;;;;;9.59;58.89;101239.06;4995642;28;20034;-44
2022/04/09 11:12:31;;;;;;;11.93;2.53;;;;;;;9.75;57.20;101230.44;4983537;28;20049;-46
2022/04/09 11:15:01;;;;;;;10.27;1.92;;;;;;;10.00;57.51;101260.13;4977314;28;20034;-45
2022/04/09 11:17:27;;;;;;;7.90;1.55;;;;;;;9.84;51.04;101242.94;4981726;28;20025;-46